Lady Nurgul — 9HA3529 — position and weather

sailwx.info

Track history (hours):
 
Tides and Currents Weather Stations Pressure Air Temp Water Temp Dewpoint Dewpoint Depression Visibility Wind Speed Wind Dir Waves Ship Positions

Lady Nurgul

Last reported at 2018-Jan-12 14:59 UTC. Time now 2018-Jan-18 04:13 UTC.
Position N 35°60' W 005°03'.

Length 92 m; draft 6.4 m.

Type: Cargo ship. MMSI: 229699000.

Date/timePositionNaut miles runAvg speedWind from/ knotsBaromVisibWave heightAir tempDewpointWater temp
2018-Jan-12 14:59N 35°60' W 005°03'612.5
2018-Jan-12 14:30N 35°60' W 005°10'612.8
2018-Jan-12 14:00N 35°59' W 005°18'713.1
2018-Jan-12 13:30N 35°58' W 005°26'713.1
2018-Jan-12 12:59N 35°56' W 005°34'611.8
2018-Jan-12 12:30N 35°55' W 005°41'1311.8
2018-Jan-12 11:24N 35°55' W 005°57'811.7
2018-Jan-12 10:44N 35°54' W 006°07'241 8.9
2018-Jan-11 07:39N 38°27' W 010°01'310.8
2018-Jan-11 07:25N 38°30' W 010°02'1210.1
2018-Jan-11 06:15N 38°41' W 010°05'3 9.7
2018-Jan-11 05:54N 38°45' W 010°06'4 9.5
2018-Jan-11 05:30N 38°48' W 010°06'5 9.6
2018-Jan-11 04:57N 38°54' W 010°07'4 9.5
2018-Jan-11 04:30N 38°58' W 010°08'5 9.6
2018-Jan-11 04:00N 39°03' W 010°09'  
2018-Jan-06 10:13N 39°15' W 009°50'3 9.6
2018-Jan-06 09:57N 39°12' W 009°50'4 9.6
2018-Jan-06 09:30N 39°08' W 009°50'5 9.5
2018-Jan-06 09:01N 39°03' W 009°49'5 9.2
2018-Jan-06 08:30N 38°59' W 009°49'5 9.2
2018-Jan-06 07:59N 38°54' W 009°50'5 8.7
2018-Jan-06 07:22N 38°48' W 009°50'3 7.1
2018-Jan-06 06:58N 38°45' W 009°50'3 7.2
2018-Jan-06 06:29N 38°42' W 009°50'3 6.6
2018-Jan-06 06:00N 38°39' W 009°49'3 6.9
2018-Jan-06 05:30N 38°36' W 009°48'3 6.8
2018-Jan-06 05:00N 38°32' W 009°47'12 6.6
2018-Jan-06 03:08N 38°21' W 009°41'243 8.5
2018-Jan-04 22:41N 35°58' W 005°35'2 8.8
2018-Jan-04 22:27N 35°59' W 005°32'3 8.0
2018-Jan-04 22:00N 35°60' W 005°28'5 7.3
2018-Jan-04 21:21N 36°01' W 005°23'2 7.0
2018-Jan-04 21:00N 36°02' W 005°20'  
Track history (hours):
 
Tides and Currents Weather Stations Pressure Air Temp Water Temp Dewpoint Dewpoint Depression Visibility Wind Speed Wind Dir Waves Ship Positions

Lady Nurgul

Last reported at 2018-Jan-12 14:59 UTC. Time now 2018-Jan-18 04:13 UTC.
Position N 35°60' W 005°03'.

Length 92 m; draft 6.4 m.

Type: Cargo ship. MMSI: 229699000.

Date/timePositionNaut miles runAvg speedWind from/ knotsBaromVisibWave heightAir tempDewpointWater temp
2018-Jan-12 14:59N 35°60' W 005°03'612.5
2018-Jan-12 14:30N 35°60' W 005°10'612.8
2018-Jan-12 14:00N 35°59' W 005°18'713.1
2018-Jan-12 13:30N 35°58' W 005°26'713.1
2018-Jan-12 12:59N 35°56' W 005°34'611.8
2018-Jan-12 12:30N 35°55' W 005°41'1311.8
2018-Jan-12 11:24N 35°55' W 005°57'811.7
2018-Jan-12 10:44N 35°54' W 006°07'241 8.9
2018-Jan-11 07:39N 38°27' W 010°01'310.8
2018-Jan-11 07:25N 38°30' W 010°02'1210.1
2018-Jan-11 06:15N 38°41' W 010°05'3 9.7
2018-Jan-11 05:54N 38°45' W 010°06'4 9.5
2018-Jan-11 05:30N 38°48' W 010°06'5 9.6
2018-Jan-11 04:57N 38°54' W 010°07'4 9.5
2018-Jan-11 04:30N 38°58' W 010°08'5 9.6
2018-Jan-11 04:00N 39°03' W 010°09'  
2018-Jan-06 10:13N 39°15' W 009°50'3 9.6
2018-Jan-06 09:57N 39°12' W 009°50'4 9.6
2018-Jan-06 09:30N 39°08' W 009°50'5 9.5
2018-Jan-06 09:01N 39°03' W 009°49'5 9.2
2018-Jan-06 08:30N 38°59' W 009°49'5 9.2
2018-Jan-06 07:59N 38°54' W 009°50'5 8.7
2018-Jan-06 07:22N 38°48' W 009°50'3 7.1
2018-Jan-06 06:58N 38°45' W 009°50'3 7.2
2018-Jan-06 06:29N 38°42' W 009°50'3 6.6
2018-Jan-06 06:00N 38°39' W 009°49'3 6.9
2018-Jan-06 05:30N 38°36' W 009°48'3 6.8
2018-Jan-06 05:00N 38°32' W 009°47'12 6.6
2018-Jan-06 03:08N 38°21' W 009°41'243 8.5
2018-Jan-04 22:41N 35°58' W 005°35'2 8.8
2018-Jan-04 22:27N 35°59' W 005°32'3 8.0
2018-Jan-04 22:00N 35°60' W 005°28'5 7.3
2018-Jan-04 21:21N 36°01' W 005°23'2 7.0
2018-Jan-04 21:00N 36°02' W 005°20'  

Dump ship's entire track history